Time;durP1;ratioP1;P1;durP2;ratioP2;P2;SDS_P1;SDS_P2;PMS_P1;PMS_P2;Temp;Humidity;BMP_temperature;BMP_pressure;BME280_temperature;BME280_humidity;BME280_pressure;Samples;Min_cycle;Max_cycle;Signal;HPM_P1;HPM_P2
2023/08/07 00:00:50;;;;;;;15.35;3.80;;;;;;;;;;5129245;27;20510;-76
2023/08/07 00:03:18;;;;;;;17.75;3.83;;;;;;;;;;5137163;27;20490;-76
2023/08/07 00:05:54;;;;;;;13.70;3.47;;;;;;;;;;5137461;27;20039;-76
2023/08/07 00:08:21;;;;;;;15.50;3.90;;;;;;;;;;5134282;27;20521;-76
2023/08/07 00:10:48;;;;;;;11.85;3.50;;;;;;;;;;5126197;27;20039;-76
2023/08/07 00:13:14;;;;;;;14.45;3.75;;;;;;;;;;5119896;27;20051;-76
2023/08/07 00:15:40;;;;;;;11.57;3.63;;;;;;;;;;5124952;27;20038;-76
2023/08/07 00:18:06;;;;;;;13.85;4.15;;;;;;;;;;5122264;27;20410;-76
2023/08/07 00:20:32;;;;;;;14.55;4.72;;;;;;;;;;5134741;27;20043;-76
2023/08/07 00:22:59;;;;;;;11.93;3.83;;;;;;;;;;5136364;27;20047;-76
2023/08/07 00:25:25;;;;;;;11.45;4.57;;;;;;;;;;5136686;27;20051;-76
2023/08/07 00:27:51;;;;;;;11.13;4.40;;;;;;;;;;5155258;27;20138;-77
2023/08/07 00:30:17;;;;;;;12.23;4.07;;;;;;;;;;5127183;27;20035;-77
2023/08/07 00:32:43;;;;;;;12.15;4.45;;;;;;;;;;5135147;27;20046;-76
2023/08/07 00:35:09;;;;;;;15.68;4.50;;;;;;;;;;5136525;27;20043;-76
2023/08/07 00:37:35;;;;;;;9.43;3.78;;;;;;;;;;5118923;27;20039;-77
2023/08/07 00:40:01;;;;;;;9.32;3.92;;;;;;;;;;5119706;27;20192;-77
2023/08/07 00:42:27;;;;;;;12.45;3.60;;;;;;;;;;5119077;27;20089;-77
2023/08/07 00:44:54;;;;;;;9.20;3.25;;;;;;;;;;5155064;27;20474;-77
2023/08/07 00:47:20;;;;;;;10.15;3.03;;;;;;;;;;5132057;27;20035;-77
2023/08/07 00:49:46;;;;;;;6.93;2.85;;;;;;;;;;5115995;27;20390;-77
2023/08/07 00:52:12;;;;;;;8.90;2.90;;;;;;;;;;5110040;27;20038;-77
2023/08/07 00:54:38;;;;;;;7.68;3.10;;;;;;;;;;5104273;27;20390;-76
2023/08/07 00:57:11;;;;;;;9.75;3.13;;;;;;;;;;5116901;27;20034;-76
2023/08/07 00:59:38;;;;;;;10.18;2.90;;;;;;;;;;5117483;27;20035;-77
2023/08/07 01:02:05;;;;;;;13.45;3.42;;;;;;;;;;5136007;27;20117;-76
2023/08/07 01:04:31;;;;;;;12.55;3.50;;;;;;;;;;5135265;27;20038;-76
2023/08/07 01:06:57;;;;;;;12.32;3.17;;;;;;;;;;5122420;27;20065;-76
2023/08/07 01:09:24;;;;;;;11.80;2.60;;;;;;;;;;5135748;27;20035;-77
2023/08/07 01:12:01;;;;;;;17.23;3.85;;;;;;;;;;5125215;28;20053;-76
2023/08/07 01:14:27;;;;;;;11.35;2.97;;;;;;;;;;5092332;28;20055;-76
2023/08/07 01:16:59;;;;;;;11.45;2.70;;;;;;;;;;5130781;28;20035;-76
2023/08/07 01:19:27;;;;;;;15.35;2.78;;;;;;;;;;5115455;28;20103;-76
2023/08/07 01:22:12;;;;;;;11.27;2.65;;;;;;;;;;5101362;28;20036;-76
2023/08/07 01:24:40;;;;;;;12.53;2.90;;;;;;;;;;5123319;28;20044;-76
2023/08/07 01:27:18;;;;;;;13.07;2.50;;;;;;;;;;5095512;28;20484;-76
2023/08/07 01:29:52;;;;;;;10.25;2.20;;;;;;;;;;5133321;28;20370;-76
2023/08/07 01:32:22;;;;;;;9.98;2.42;;;;;;;;;;5113519;28;20043;-77
2023/08/07 01:34:48;;;;;;;10.32;2.28;;;;;;;;;;5103177;28;20581;-76
2023/08/07 01:37:14;;;;;;;13.05;2.10;;;;;;;;;;5117648;27;20032;-76
2023/08/07 01:39:41;;;;;;;14.00;2.20;;;;;;;;;;5110704;28;20035;-77
2023/08/07 01:42:07;;;;;;;16.88;1.85;;;;;;;;;;5111822;28;20480;-77
2023/08/07 01:44:34;;;;;;;9.65;1.90;;;;;;;;;;5116030;28;20035;-78
2023/08/07 01:47:00;;;;;;;18.60;3.15;;;;;;;;;;5132334;28;20084;-77
2023/08/07 01:49:26;;;;;;;12.88;2.25;;;;;;;;;;5117688;28;20043;-77
2023/08/07 01:51:52;;;;;;;10.93;2.20;;;;;;;;;;5100041;28;20122;-77
2023/08/07 01:54:18;;;;;;;12.52;2.20;;;;;;;;;;5125490;28;20066;-78
2023/08/07 01:56:44;;;;;;;9.00;1.80;;;;;;;;;;5111799;28;20084;-77
2023/08/07 01:59:10;;;;;;;7.80;1.70;;;;;;;;;;5107946;27;20046;-77
2023/08/07 02:01:36;;;;;;;9.05;2.08;;;;;;;;;;5121888;27;20490;-77
2023/08/07 02:04:02;;;;;;;9.93;1.88;;;;;;;;;;5133442;27;20525;-77
2023/08/07 02:06:28;;;;;;;12.57;1.83;;;;;;;;;;5136005;27;20047;-78
2023/08/07 02:08:54;;;;;;;13.32;2.22;;;;;;;;;;5136303;27;20100;-77
2023/08/07 02:11:20;;;;;;;9.05;1.90;;;;;;;;;;5135759;27;20147;-77
2023/08/07 02:13:47;;;;;;;11.77;2.25;;;;;;;;;;5099489;28;20477;-77
2023/08/07 02:16:13;;;;;;;14.25;2.50;;;;;;;;;;5108436;28;20150;-77
2023/08/07 02:18:39;;;;;;;15.60;2.17;;;;;;;;;;5105105;28;20491;-77
2023/08/07 02:21:05;;;;;;;9.07;2.10;;;;;;;;;;5079103;28;20090;-77
2023/08/07 02:23:31;;;;;;;9.35;2.50;;;;;;;;;;5109490;28;20040;-76
2023/08/07 02:25:57;;;;;;;14.52;2.30;;;;;;;;;;5086820;28;20035;-77
2023/08/07 02:28:23;;;;;;;15.27;2.00;;;;;;;;;;5115912;28;20066;-77
2023/08/07 02:30:51;;;;;;;10.25;2.33;;;;;;;;;;5108761;28;20115;-76
2023/08/07 02:33:17;;;;;;;12.13;2.60;;;;;;;;;;5080724;28;20044;-77
2023/08/07 02:35:43;;;;;;;14.05;2.40;;;;;;;;;;5103121;28;20395;-77
2023/08/07 02:38:09;;;;;;;10.00;2.50;;;;;;;;;;5106131;28;20036;-77
2023/08/07 02:40:35;;;;;;;13.15;2.58;;;;;;;;;;5110875;28;20075;-77
2023/08/07 02:43:01;;;;;;;14.77;2.75;;;;;;;;;;5095137;28;20098;-76
2023/08/07 02:45:28;;;;;;;15.38;2.65;;;;;;;;;;5112024;28;20109;-76
2023/08/07 02:47:54;;;;;;;10.35;2.42;;;;;;;;;;5115256;28;20055;-76
2023/08/07 02:50:20;;;;;;;10.43;2.78;;;;;;;;;;5100998;28;20100;-77
2023/08/07 02:52:46;;;;;;;21.02;2.80;;;;;;;;;;5107987;28;20116;-77
2023/08/07 02:55:12;;;;;;;30.65;4.07;;;;;;;;;;5093868;28;20032;-77
2023/08/07 02:57:38;;;;;;;15.02;2.90;;;;;;;;;;5094112;28;20111;-77
2023/08/07 03:00:04;;;;;;;15.70;3.05;;;;;;;;;;5105256;28;20047;-77
2023/08/07 03:02:30;;;;;;;14.75;3.10;;;;;;;;;;5097628;28;20482;-76
2023/08/07 03:04:56;;;;;;;14.00;2.63;;;;;;;;;;5096331;28;20047;-77
2023/08/07 03:07:22;;;;;;;13.70;3.05;;;;;;;;;;5076273;28;20043;-77
2023/08/07 03:09:49;;;;;;;23.17;3.42;;;;;;;;;;5095013;28;20044;-77
2023/08/07 03:12:15;;;;;;;14.18;2.80;;;;;;;;;;5094184;28;20051;-77
2023/08/07 03:14:41;;;;;;;19.30;3.40;;;;;;;;;;5116822;27;20043;-77
2023/08/07 03:17:07;;;;;;;12.15;2.58;;;;;;;;;;5127563;27;20042;-77
2023/08/07 03:19:33;;;;;;;17.17;3.15;;;;;;;;;;5131035;27;20046;-77
2023/08/07 03:21:59;;;;;;;16.02;3.40;;;;;;;;;;5126385;27;20486;-77
2023/08/07 03:24:25;;;;;;;14.70;3.83;;;;;;;;;;5128562;27;20477;-77
2023/08/07 03:26:51;;;;;;;27.42;4.07;;;;;;;;;;5128773;27;20039;-77
2023/08/07 03:29:17;;;;;;;12.02;2.78;;;;;;;;;;5115841;27;20404;-77
2023/08/07 03:31:43;;;;;;;13.45;3.00;;;;;;;;;;5133240;27;20035;-76
2023/08/07 03:34:09;;;;;;;11.88;2.80;;;;;;;;;;5118723;27;20095;-78
2023/08/07 03:36:35;;;;;;;11.60;2.83;;;;;;;;;;5136171;27;20043;-77
2023/08/07 03:39:02;;;;;;;8.52;2.67;;;;;;;;;;5118165;27;20039;-78
2023/08/07 03:41:29;;;;;;;13.32;3.50;;;;;;;;;;5118738;27;20044;-77
2023/08/07 03:43:55;;;;;;;7.93;2.38;;;;;;;;;;5135317;27;20066;-77
2023/08/07 03:46:21;;;;;;;10.15;2.60;;;;;;;;;;5117938;27;20039;-77
2023/08/07 03:48:47;;;;;;;11.35;2.70;;;;;;;;;;5118291;27;20072;-78
2023/08/07 03:51:14;;;;;;;11.25;3.60;;;;;;;;;;5119100;27;20498;-76
2023/08/07 03:53:40;;;;;;;12.82;2.95;;;;;;;;;;5112818;28;20150;-77
2023/08/07 03:56:06;;;;;;;10.10;3.28;;;;;;;;;;5124066;27;20567;-78
2023/08/07 03:58:33;;;;;;;15.23;3.30;;;;;;;;;;5135978;27;20422;-77
2023/08/07 04:00:59;;;;;;;15.00;3.10;;;;;;;;;;5132854;27;20494;-77
2023/08/07 04:03:25;;;;;;;19.23;3.53;;;;;;;;;;5107687;28;20039;-77
2023/08/07 04:05:54;;;;;;;10.73;3.78;;;;;;;;;;5096526;28;20494;-77
2023/08/07 04:08:21;;;;;;;13.93;3.25;;;;;;;;;;5117711;27;20047;-77
2023/08/07 04:10:57;;;;;;;11.05;4.10;;;;;;;;;;5126298;27;20042;-77
2023/08/07 04:13:23;;;;;;;10.30;3.22;;;;;;;;;;5138701;27;20195;-77
2023/08/07 04:15:49;;;;;;;13.52;3.33;;;;;;;;;;5119721;27;20047;-77
2023/08/07 04:18:16;;;;;;;15.48;3.13;;;;;;;;;;5125899;27;20038;-77
2023/08/07 04:20:42;;;;;;;12.07;3.17;;;;;;;;;;5120005;27;20046;-77
2023/08/07 04:23:08;;;;;;;16.70;3.58;;;;;;;;;;5136081;27;20474;-77
2023/08/07 04:25:34;;;;;;;14.57;3.50;;;;;;;;;;5119693;27;20046;-77
2023/08/07 04:28:01;;;;;;;14.73;3.90;;;;;;;;;;5117663;27;20035;-77
2023/08/07 04:30:27;;;;;;;18.48;3.50;;;;;;;;;;5135693;27;20039;-78
2023/08/07 04:32:53;;;;;;;11.80;3.95;;;;;;;;;;5113284;27;20049;-78
2023/08/07 04:35:19;;;;;;;13.60;3.60;;;;;;;;;;5116090;27;20031;-77
2023/08/07 04:37:45;;;;;;;15.32;3.78;;;;;;;;;;5128516;27;20046;-77
2023/08/07 04:40:12;;;;;;;12.00;3.58;;;;;;;;;;5105272;27;20035;-77
2023/08/07 04:42:38;;;;;;;8.13;3.08;;;;;;;;;;5131229;27;20487;-77
2023/08/07 04:45:04;;;;;;;10.85;3.00;;;;;;;;;;5132496;27;20038;-77
2023/08/07 04:47:30;;;;;;;13.05;3.28;;;;;;;;;;5136315;27;20117;-78
2023/08/07 04:49:56;;;;;;;12.35;2.90;;;;;;;;;;5102165;27;20039;-78
2023/08/07 04:52:22;;;;;;;10.52;3.03;;;;;;;;;;5119144;27;20040;-77
2023/08/07 04:54:48;;;;;;;14.23;3.30;;;;;;;;;;5135138;27;20042;-77
2023/08/07 04:57:14;;;;;;;15.20;3.28;;;;;;;;;;5135351;27;20575;-77
2023/08/07 04:59:40;;;;;;;13.75;3.10;;;;;;;;;;5136206;27;20033;-78
2023/08/07 05:02:06;;;;;;;12.10;3.00;;;;;;;;;;5136547;27;20121;-76
2023/08/07 05:04:32;;;;;;;18.33;3.10;;;;;;;;;;5119053;27;20043;-78
2023/08/07 05:06:58;;;;;;;17.40;3.00;;;;;;;;;;5121624;27;20118;-77
2023/08/07 05:09:25;;;;;;;12.70;3.00;;;;;;;;;;5128570;27;20039;-77
2023/08/07 05:11:51;;;;;;;25.02;4.25;;;;;;;;;;5128978;27;20068;-78
2023/08/07 05:14:17;;;;;;;15.45;3.20;;;;;;;;;;5135720;27;20436;-79
2023/08/07 05:16:43;;;;;;;12.75;2.80;;;;;;;;;;5136181;27;20402;-78
2023/08/07 05:19:09;;;;;;;12.15;3.10;;;;;;;;;;5131891;27;20039;-77
2023/08/07 05:21:35;;;;;;;12.07;2.97;;;;;;;;;;5134652;27;20049;-78
2023/08/07 05:24:01;;;;;;;9.38;2.85;;;;;;;;;;5135753;27;20108;-77
2023/08/07 05:26:29;;;;;;;12.77;3.42;;;;;;;;;;5118725;27;20089;-78
2023/08/07 05:28:57;;;;;;;12.38;2.65;;;;;;;;;;5102405;27;20520;-78
2023/08/07 05:31:24;;;;;;;8.07;2.40;;;;;;;;;;5102375;27;20046;-78
2023/08/07 05:33:50;;;;;;;9.60;2.60;;;;;;;;;;5109936;28;20050;-77
2023/08/07 05:36:16;;;;;;;11.90;2.85;;;;;;;;;;5133692;27;20105;-78
2023/08/07 05:38:43;;;;;;;13.27;2.33;;;;;;;;;;5140044;27;20038;-77
2023/08/07 05:41:09;;;;;;;13.50;3.30;;;;;;;;;;5140115;27;20041;-78
2023/08/07 05:43:35;;;;;;;13.00;2.80;;;;;;;;;;5122782;27;20038;-77
2023/08/07 05:46:01;;;;;;;14.65;3.28;;;;;;;;;;5134031;27;20043;-81
2023/08/07 05:48:28;;;;;;;14.73;3.47;;;;;;;;;;5101887;27;20125;-81
2023/08/07 05:50:54;;;;;;;10.45;2.72;;;;;;;;;;5131342;27;20047;-78
2023/08/07 05:53:20;;;;;;;17.88;3.92;;;;;;;;;;5101778;27;20471;-76
2023/08/07 05:55:46;;;;;;;12.95;3.65;;;;;;;;;;5125553;27;20030;-78
2023/08/07 05:58:12;;;;;;;14.52;3.78;;;;;;;;;;5120613;27;20049;-77
2023/08/07 06:00:38;;;;;;;11.77;3.47;;;;;;;;;;5103973;27;20118;-76
2023/08/07 06:03:04;;;;;;;13.18;3.53;;;;;;;;;;5131134;27;20537;-78
2023/08/07 06:05:30;;;;;;;10.60;3.08;;;;;;;;;;5122488;27;20389;-78
2023/08/07 06:07:56;;;;;;;10.65;2.90;;;;;;;;;;5139646;27;20050;-78
2023/08/07 06:10:22;;;;;;;12.75;3.40;;;;;;;;;;5111302;27;20406;-79
2023/08/07 06:12:48;;;;;;;13.80;3.25;;;;;;;;;;5109005;27;20039;-78
2023/08/07 06:15:15;;;;;;;12.82;2.80;;;;;;;;;;5128594;27;20142;-80
2023/08/07 06:17:41;;;;;;;8.70;2.42;;;;;;;;;;5135432;27;20035;-78
2023/08/07 06:20:09;;;;;;;16.00;3.20;;;;;;;;;;5113626;28;20111;-79
2023/08/07 06:22:36;;;;;;;11.35;3.00;;;;;;;;;;5109090;27;20039;-82
2023/08/07 06:25:02;;;;;;;14.07;2.92;;;;;;;;;;5132487;27;20035;-81
2023/08/07 06:27:28;;;;;;;9.77;2.78;;;;;;;;;;5133304;27;20039;-77
2023/08/07 06:29:55;;;;;;;10.80;2.80;;;;;;;;;;5091635;28;20043;-79
2023/08/07 06:32:21;;;;;;;15.43;3.90;;;;;;;;;;5123241;27;20031;-78
2023/08/07 06:34:47;;;;;;;14.88;3.00;;;;;;;;;;5131616;27;20092;-79
2023/08/07 06:37:14;;;;;;;12.77;3.10;;;;;;;;;;5122480;27;20036;-91
2023/08/07 06:39:40;;;;;;;9.38;2.70;;;;;;;;;;5135177;27;20039;-88
2023/08/07 06:42:06;;;;;;;13.55;3.00;;;;;;;;;;5100757;27;20394;-86
2023/08/07 06:44:32;;;;;;;10.80;3.03;;;;;;;;;;5101565;27;20475;-86
2023/08/07 06:46:58;;;;;;;13.27;3.17;;;;;;;;;;5130447;27;20035;-85
2023/08/07 06:49:24;;;;;;;15.73;3.20;;;;;;;;;;5114394;28;20078;-85
2023/08/07 06:51:50;;;;;;;10.60;2.78;;;;;;;;;;5116656;27;20495;-88
2023/08/07 06:54:16;;;;;;;13.70;3.33;;;;;;;;;;5116658;27;20042;-84
2023/08/07 06:56:43;;;;;;;14.80;3.45;;;;;;;;;;5132932;27;20039;-85
2023/08/07 06:59:09;;;;;;;9.00;2.70;;;;;;;;;;5126412;27;20040;-86
2023/08/07 07:01:36;;;;;;;9.75;2.25;;;;;;;;;;5095262;28;20495;-86
2023/08/07 07:04:02;;;;;;;8.52;2.08;;;;;;;;;;5113969;28;20035;-85
2023/08/07 07:06:28;;;;;;;9.02;2.30;;;;;;;;;;5123759;27;20079;-89
2023/08/07 07:08:54;;;;;;;12.40;2.50;;;;;;;;;;5100178;27;20513;-90
2023/08/07 07:11:22;;;;;;;10.35;2.70;;;;;;;;;;5133632;27;20113;-85
2023/08/07 07:13:49;;;;;;;13.20;2.83;;;;;;;;;;5132774;27;20051;-85
2023/08/07 07:16:15;;;;;;;7.75;2.05;;;;;;;;;;5133787;27;20614;-86
2023/08/07 07:18:41;;;;;;;9.38;2.38;;;;;;;;;;5133524;27;20043;-88
2023/08/07 07:21:07;;;;;;;10.60;2.60;;;;;;;;;;5133225;27;20043;-86
2023/08/07 07:23:33;;;;;;;11.38;2.40;;;;;;;;;;5132897;27;20083;-85
2023/08/07 07:26:00;;;;;;;8.05;2.53;;;;;;;;;;5132662;27;20088;-85
2023/08/07 07:28:26;;;;;;;11.55;2.65;;;;;;;;;;5135453;27;20371;-85
2023/08/07 07:30:52;;;;;;;9.15;2.47;;;;;;;;;;5107356;28;20058;-87
2023/08/07 07:33:18;;;;;;;13.43;2.75;;;;;;;;;;5130947;27;20042;-85
2023/08/07 07:35:53;;;;;;;8.48;2.75;;;;;;;;;;5121285;27;20043;-85
2023/08/07 07:38:19;;;;;;;12.45;2.97;;;;;;;;;;5128641;27;20031;-85
2023/08/07 07:40:45;;;;;;;10.38;2.55;;;;;;;;;;5126895;27;20031;-84
2023/08/07 07:43:11;;;;;;;7.43;2.33;;;;;;;;;;5130156;27;20563;-89
2023/08/07 07:45:37;;;;;;;9.93;2.50;;;;;;;;;;5092731;28;20040;-86
2023/08/07 07:48:04;;;;;;;8.48;2.20;;;;;;;;;;5131928;27;20042;-89
2023/08/07 07:50:30;;;;;;;9.65;2.75;;;;;;;;;;5129054;27;20071;-85
2023/08/07 07:52:56;;;;;;;10.23;2.40;;;;;;;;;;5119397;27;20044;-86
2023/08/07 07:55:22;;;;;;;9.63;2.60;;;;;;;;;;5131099;27;20101;-86
2023/08/07 07:57:48;;;;;;;8.63;2.28;;;;;;;;;;5096493;28;20053;-86
2023/08/07 08:00:14;;;;;;;10.70;2.50;;;;;;;;;;5111950;27;20035;-85
2023/08/07 08:02:41;;;;;;;6.82;2.30;;;;;;;;;;5107556;28;20479;-87
2023/08/07 08:05:07;;;;;;;8.68;2.80;;;;;;;;;;5110331;28;20036;-85
2023/08/07 08:07:34;;;;;;;7.97;2.40;;;;;;;;;;5129176;27;20039;-85
2023/08/07 08:10:00;;;;;;;11.70;2.53;;;;;;;;;;5125262;27;20122;-88
2023/08/07 08:12:26;;;;;;;8.70;2.70;;;;;;;;;;5127578;27;20375;-85
2023/08/07 08:14:53;;;;;;;13.20;2.83;;;;;;;;;;5118726;27;20050;-85
2023/08/07 08:17:19;;;;;;;9.57;2.60;;;;;;;;;;5120691;27;20039;-87
2023/08/07 08:19:45;;;;;;;7.75;2.30;;;;;;;;;;5130973;27;20398;-87
2023/08/07 08:22:11;;;;;;;8.75;2.67;;;;;;;;;;5088877;28;20100;-86
2023/08/07 08:24:37;;;;;;;10.52;2.85;;;;;;;;;;5128580;27;20051;-87
2023/08/07 08:27:03;;;;;;;8.65;2.70;;;;;;;;;;5107014;28;20043;-88
2023/08/07 08:29:29;;;;;;;10.23;2.80;;;;;;;;;;5115944;27;20464;-89
2023/08/07 08:31:56;;;;;;;7.68;2.50;;;;;;;;;;5104274;28;20043;-89
2023/08/07 08:34:22;;;;;;;12.63;3.50;;;;;;;;;;5125124;27;20092;-86
2023/08/07 08:36:48;;;;;;;10.68;2.70;;;;;;;;;;5128469;27;20410;-87
2023/08/07 08:39:14;;;;;;;9.23;3.10;;;;;;;;;;5126921;27;20491;-89
2023/08/07 08:41:42;;;;;;;8.85;3.00;;;;;;;;;;5099299;27;20118;-89
2023/08/07 08:44:11;;;;;;;10.40;2.65;;;;;;;;;;5124965;27;20115;-89
2023/08/07 08:46:37;;;;;;;9.13;2.45;;;;;;;;;;5133019;27;20574;-88
2023/08/07 08:49:04;;;;;;;9.35;2.45;;;;;;;;;;5132796;27;20082;-86
2023/08/07 08:51:30;;;;;;;10.23;2.88;;;;;;;;;;5111782;28;20487;-88
2023/08/07 08:53:57;;;;;;;8.90;2.45;;;;;;;;;;5131757;27;20071;-87
2023/08/07 08:56:23;;;;;;;10.65;2.65;;;;;;;;;;5134208;27;20402;-89
2023/08/07 08:58:50;;;;;;;10.73;2.25;;;;;;;;;;5115614;27;20070;-89
2023/08/07 09:01:18;;;;;;;6.07;2.17;;;;;;;;;;5118638;27;20596;-89
2023/08/07 09:03:45;;;;;;;8.40;2.17;;;;;;;;;;5127167;27;20050;-88
2023/08/07 09:06:12;;;;;;;6.78;2.10;;;;;;;;;;5114733;28;20110;-87
2023/08/07 09:08:39;;;;;;;8.20;2.20;;;;;;;;;;5130037;27;20499;-89
2023/08/07 09:11:07;;;;;;;9.65;2.20;;;;;;;;;;5115332;28;20050;-86
2023/08/07 09:13:34;;;;;;;6.47;1.80;;;;;;;;;;5132136;27;20055;-86
2023/08/07 09:16:01;;;;;;;6.53;1.80;;;;;;;;;;5133709;28;20043;-85
2023/08/07 09:18:27;;;;;;;6.65;1.85;;;;;;;;;;5115021;28;20116;-88
2023/08/07 09:20:53;;;;;;;8.05;2.10;;;;;;;;;;5128143;28;20127;-86
2023/08/07 09:23:19;;;;;;;7.13;2.00;;;;;;;;;;5132307;28;20043;-85
2023/08/07 09:25:46;;;;;;;6.15;2.10;;;;;;;;;;5114132;28;20039;-87
2023/08/07 09:28:13;;;;;;;9.30;2.00;;;;;;;;;;5119363;28;20039;-89
2023/08/07 09:30:39;;;;;;;6.00;1.70;;;;;;;;;;5122051;28;20046;-87
2023/08/07 09:33:06;;;;;;;6.90;2.38;;;;;;;;;;5108192;28;20044;-88
2023/08/07 09:35:33;;;;;;;8.80;2.10;;;;;;;;;;5110250;28;20436;-87
2023/08/07 09:37:59;;;;;;;5.97;2.15;;;;;;;;;;5127756;28;20111;-87
2023/08/07 09:40:25;;;;;;;7.13;1.98;;;;;;;;;;5118351;28;20483;-83
2023/08/07 09:42:52;;;;;;;11.20;2.40;;;;;;;;;;5132376;28;20038;-85
2023/08/07 09:45:21;;;;;;;8.63;2.00;;;;;;;;;;5111019;28;20047;-84
2023/08/07 09:47:47;;;;;;;8.82;2.50;;;;;;;;;;5122439;28;20118;-88
2023/08/07 09:50:17;;;;;;;13.93;2.88;;;;;;;;;;5132106;28;20047;-84
2023/08/07 09:52:47;;;;;;;7.30;2.20;;;;;;;;;;5132258;28;20050;-86
2023/08/07 09:55:15;;;;;;;9.55;2.17;;;;;;;;;;5124182;28;20058;-84
2023/08/07 09:57:42;;;;;;;7.38;2.47;;;;;;;;;;5106422;28;20032;-83
2023/08/07 10:00:15;;;;;;;9.40;2.28;;;;;;;;;;5126037;28;20059;-84
2023/08/07 10:02:42;;;;;;;7.25;2.25;;;;;;;;;;5112081;28;20046;-88
2023/08/07 10:05:09;;;;;;;9.30;2.20;;;;;;;;;;5120087;28;20036;-84
2023/08/07 10:07:36;;;;;;;10.15;2.00;;;;;;;;;;5125918;28;20050;-85
2023/08/07 10:10:03;;;;;;;6.32;1.98;;;;;;;;;;5118924;28;20044;-83
2023/08/07 10:12:29;;;;;;;7.85;2.65;;;;;;;;;;5127702;28;20058;-85
2023/08/07 10:14:55;;;;;;;7.10;2.13;;;;;;;;;;5111083;28;20051;-86
2023/08/07 10:17:22;;;;;;;6.90;1.98;;;;;;;;;;5111053;28;20093;-86
2023/08/07 10:19:49;;;;;;;5.95;2.00;;;;;;;;;;5094984;28;20047;-84
2023/08/07 10:22:26;;;;;;;8.20;1.88;;;;;;;;;;5123672;27;20043;-84
2023/08/07 10:24:53;;;;;;;6.60;2.10;;;;;;;;;;5129517;27;20039;-86
2023/08/07 10:27:20;;;;;;;6.78;2.42;;;;;;;;;;5135404;27;20039;-85
2023/08/07 10:29:48;;;;;;;6.80;2.10;;;;;;;;;;5132693;27;20039;-85
2023/08/07 10:32:15;;;;;;;8.60;2.20;;;;;;;;;;5117152;27;20390;-86
2023/08/07 10:34:42;;;;;;;7.85;2.30;;;;;;;;;;5132043;27;20051;-86
2023/08/07 10:37:32;;;;;;;11.15;2.03;;;;;;;;;;5108819;28;20039;-84
2023/08/07 10:40:02;;;;;;;7.38;2.25;;;;;;;;;;5117738;27;20073;-83
2023/08/07 10:42:28;;;;;;;6.53;2.10;;;;;;;;;;5107141;27;20382;-85
2023/08/07 10:44:54;;;;;;;5.38;1.90;;;;;;;;;;5129541;27;20121;-85
2023/08/07 10:47:33;;;;;;;7.95;2.10;;;;;;;;;;5111057;28;20047;-86
2023/08/07 10:49:59;;;;;;;8.23;2.20;;;;;;;;;;5124225;27;20177;-87
2023/08/07 10:52:25;;;;;;;7.22;1.90;;;;;;;;;;5135181;27;20043;-87
2023/08/07 10:54:51;;;;;;;7.43;1.92;;;;;;;;;;5134583;27;20421;-85
2023/08/07 10:57:19;;;;;;;8.13;2.03;;;;;;;;;;5106712;27;20088;-84
2023/08/07 10:59:50;;;;;;;8.02;2.08;;;;;;;;;;5117542;27;20074;-84
2023/08/07 11:02:23;;;;;;;8.85;2.00;;;;;;;;;;5134931;27;20395;-87
2023/08/07 11:04:50;;;;;;;8.68;2.22;;;;;;;;;;5117491;27;20505;-83
2023/08/07 11:07:29;;;;;;;8.10;2.00;;;;;;;;;;5134631;27;20035;-84
2023/08/07 11:09:55;;;;;;;7.25;2.05;;;;;;;;;;5125323;27;20047;-84
2023/08/07 11:12:21;;;;;;;10.07;1.90;;;;;;;;;;5134608;27;20047;-88
2023/08/07 11:14:47;;;;;;;7.13;2.10;;;;;;;;;;5129820;27;20047;-85
2023/08/07 11:17:14;;;;;;;6.13;1.77;;;;;;;;;;5109199;27;20515;-84
2023/08/07 11:19:40;;;;;;;11.90;2.10;;;;;;;;;;5132040;27;20096;-83
2023/08/07 11:22:06;;;;;;;5.45;1.50;;;;;;;;;;5134765;27;20069;-85
2023/08/07 11:24:32;;;;;;;6.00;1.90;;;;;;;;;;5113845;27;20043;-82
2023/08/07 11:26:58;;;;;;;9.68;2.10;;;;;;;;;;5104510;27;20050;-86
2023/08/07 11:29:25;;;;;;;7.68;1.92;;;;;;;;;;5135713;27;20039;-86
2023/08/07 11:31:51;;;;;;;5.72;1.80;;;;;;;;;;5134368;27;20035;-85
2023/08/07 11:34:21;;;;;;;6.30;1.80;;;;;;;;;;5133917;27;20062;-84
2023/08/07 11:36:48;;;;;;;8.73;1.92;;;;;;;;;;5120376;27;20035;-83
2023/08/07 11:39:14;;;;;;;9.27;2.00;;;;;;;;;;5134206;27;20043;-82
2023/08/07 11:41:40;;;;;;;7.03;1.70;;;;;;;;;;5134341;27;20535;-83
2023/08/07 11:44:09;;;;;;;5.75;1.65;;;;;;;;;;5108581;28;20092;-84
2023/08/07 11:46:36;;;;;;;5.43;1.85;;;;;;;;;;5117650;27;20047;-82
2023/08/07 11:49:04;;;;;;;6.53;1.80;;;;;;;;;;5134126;27;20073;-82
2023/08/07 11:51:30;;;;;;;17.50;2.70;;;;;;;;;;5134172;27;20051;-87
2023/08/07 11:53:58;;;;;;;6.60;1.77;;;;;;;;;;5119041;27;20066;-83
2023/08/07 11:56:25;;;;;;;7.22;1.83;;;;;;;;;;5128137;27;20035;-84
2023/08/07 11:58:52;;;;;;;5.65;1.73;;;;;;;;;;5107629;27;20058;-83
2023/08/07 12:01:19;;;;;;;8.75;1.75;;;;;;;;;;5123198;27;20031;-83
2023/08/07 12:04:01;;;;;;;5.40;1.70;;;;;;;;;;5130376;27;20069;-83
2023/08/07 12:06:27;;;;;;;6.90;1.90;;;;;;;;;;5117575;27;20039;-83
2023/08/07 12:08:57;;;;;;;5.65;1.85;;;;;;;;;;5134423;27;20083;-83
2023/08/07 12:11:23;;;;;;;6.28;1.80;;;;;;;;;;5134493;27;20050;-84
2023/08/07 12:13:50;;;;;;;4.93;1.52;;;;;;;;;;5118928;27;20055;-84
2023/08/07 12:16:16;;;;;;;8.18;2.00;;;;;;;;;;5122106;27;20039;-84
2023/08/07 12:18:46;;;;;;;8.50;1.83;;;;;;;;;;5131048;27;20035;-85
2023/08/07 12:21:14;;;;;;;9.10;1.88;;;;;;;;;;5134958;27;20043;-85
2023/08/07 12:23:40;;;;;;;6.22;1.98;;;;;;;;;;5134703;27;20049;-84
2023/08/07 12:26:07;;;;;;;8.30;2.03;;;;;;;;;;5118100;27;20039;-83
2023/08/07 12:28:33;;;;;;;8.00;1.95;;;;;;;;;;5120890;27;20047;-83
2023/08/07 12:30:59;;;;;;;9.80;2.35;;;;;;;;;;5135610;27;20495;-83
2023/08/07 12:33:25;;;;;;;7.60;2.10;;;;;;;;;;5124724;27;20439;-80
2023/08/07 12:35:53;;;;;;;6.05;2.40;;;;;;;;;;5124519;27;20091;-79
2023/08/07 12:38:19;;;;;;;4.40;1.70;;;;;;;;;;5107549;27;20388;-79
2023/08/07 12:40:45;;;;;;;5.90;2.13;;;;;;;;;;5125793;27;20043;-80
2023/08/07 12:43:11;;;;;;;5.85;2.28;;;;;;;;;;5124926;27;20032;-80
2023/08/07 12:45:38;;;;;;;6.10;2.17;;;;;;;;;;5120671;27;20118;-80
2023/08/07 12:48:04;;;;;;;5.80;1.90;;;;;;;;;;5132663;27;20054;-80
2023/08/07 12:50:30;;;;;;;5.80;2.25;;;;;;;;;;5127864;27;20043;-81
2023/08/07 12:52:57;;;;;;;5.72;2.28;;;;;;;;;;5107254;27;20047;-83
2023/08/07 12:55:23;;;;;;;5.70;2.17;;;;;;;;;;5101570;27;20114;-83
2023/08/07 12:57:49;;;;;;;6.97;2.30;;;;;;;;;;5121824;27;20395;-83
2023/08/07 13:00:16;;;;;;;6.78;2.50;;;;;;;;;;5110853;27;20084;-83
2023/08/07 13:02:42;;;;;;;6.70;2.50;;;;;;;;;;5115580;27;20066;-83
2023/08/07 13:05:10;;;;;;;5.47;2.17;;;;;;;;;;5132999;27;20043;-82
2023/08/07 13:07:37;;;;;;;6.32;2.45;;;;;;;;;;5130019;27;20051;-83
2023/08/07 13:10:04;;;;;;;7.95;2.65;;;;;;;;;;5128400;27;20039;-82
2023/08/07 13:12:34;;;;;;;7.18;3.00;;;;;;;;;;5128631;27;20426;-83
2023/08/07 13:15:00;;;;;;;5.72;2.63;;;;;;;;;;5100969;28;20048;-83
2023/08/07 13:17:26;;;;;;;7.03;2.70;;;;;;;;;;5111897;28;20548;-82
2023/08/07 13:19:52;;;;;;;6.35;2.83;;;;;;;;;;5131671;28;20047;-82
2023/08/07 13:22:18;;;;;;;9.40;2.70;;;;;;;;;;5132613;28;20035;-82
2023/08/07 13:24:45;;;;;;;9.85;2.70;;;;;;;;;;5129009;28;20050;-82
2023/08/07 13:27:11;;;;;;;9.60;3.10;;;;;;;;;;5109777;28;20067;-82
2023/08/07 13:29:37;;;;;;;7.95;2.83;;;;;;;;;;5112821;28;20048;-83
2023/08/07 13:32:09;;;;;;;8.27;2.95;;;;;;;;;;5133359;28;20035;-84
2023/08/07 13:34:36;;;;;;;8.57;2.92;;;;;;;;;;5114133;28;20047;-83
2023/08/07 13:37:02;;;;;;;9.75;3.10;;;;;;;;;;5126223;28;20474;-83
2023/08/07 13:39:28;;;;;;;12.52;2.97;;;;;;;;;;5124355;28;20035;-83
2023/08/07 13:41:54;;;;;;;9.38;2.80;;;;;;;;;;5118139;28;20046;-83
2023/08/07 13:44:22;;;;;;;6.60;2.40;;;;;;;;;;5106758;28;20047;-83
2023/08/07 13:46:48;;;;;;;5.20;2.50;;;;;;;;;;5083871;28;20040;-83
2023/08/07 13:49:14;;;;;;;6.80;2.58;;;;;;;;;;5132329;28;20039;-83
2023/08/07 13:51:44;;;;;;;9.77;2.60;;;;;;;;;;5130601;28;20051;-83
2023/08/07 13:54:10;;;;;;;9.55;2.25;;;;;;;;;;5118693;28;20063;-82
2023/08/07 13:56:36;;;;;;;6.20;2.60;;;;;;;;;;5120764;27;20092;-82
2023/08/07 13:59:02;;;;;;;6.30;1.88;;;;;;;;;;5100423;28;20119;-82
2023/08/07 14:01:28;;;;;;;7.85;2.45;;;;;;;;;;5098503;28;20441;-82
2023/08/07 14:03:55;;;;;;;6.43;2.20;;;;;;;;;;5119362;27;20071;-81
2023/08/07 14:06:21;;;;;;;7.95;2.30;;;;;;;;;;5126291;27;20073;-81
2023/08/07 14:08:47;;;;;;;8.80;3.05;;;;;;;;;;5115649;27;20039;-81
2023/08/07 14:11:14;;;;;;;9.02;2.47;;;;;;;;;;5123601;27;20144;-81
2023/08/07 14:13:41;;;;;;;7.78;2.50;;;;;;;;;;5117354;27;20051;-81
2023/08/07 14:16:08;;;;;;;5.30;2.20;;;;;;;;;;5119035;27;20036;-81
2023/08/07 14:18:34;;;;;;;5.80;2.00;;;;;;;;;;5123361;27;20103;-81
2023/08/07 14:21:00;;;;;;;5.97;2.22;;;;;;;;;;5115156;28;20483;-87
2023/08/07 14:23:26;;;;;;;6.47;2.75;;;;;;;;;;5101118;28;20043;-81
2023/08/07 14:25:52;;;;;;;8.55;2.70;;;;;;;;;;5123085;27;20031;-81
2023/08/07 14:28:19;;;;;;;7.35;2.55;;;;;;;;;;5129793;27;20036;-81
2023/08/07 14:30:45;;;;;;;7.03;2.15;;;;;;;;;;5125545;27;20449;-81
2023/08/07 14:33:11;;;;;;;8.80;2.53;;;;;;;;;;5106028;27;20047;-81